sensor_id;sensor_type;location;lat;lon;timestamp;temperature;humidity
22114;DHT22;11223;49.968;9.062;2022-09-17T00:00:56;7.90;99.90
22114;DHT22;11223;49.968;9.062;2022-09-17T00:03:23;7.90;99.90
22114;DHT22;11223;49.968;9.062;2022-09-17T00:05:55;7.90;99.90
22114;DHT22;11223;49.968;9.062;2022-09-17T00:08:22;7.90;99.90
22114;DHT22;11223;49.968;9.062;2022-09-17T00:10:48;7.90;99.90
22114;DHT22;11223;49.968;9.062;2022-09-17T00:13:13;7.90;99.90
22114;DHT22;11223;49.968;9.062;2022-09-17T00:15:44;7.90;99.90
22114;DHT22;11223;49.968;9.062;2022-09-17T00:18:11;7.80;99.90
22114;DHT22;11223;49.968;9.062;2022-09-17T00:20:45;7.80;99.90
22114;DHT22;11223;49.968;9.062;2022-09-17T00:23:11;7.80;99.90
22114;DHT22;11223;49.968;9.062;2022-09-17T00:25:42;7.80;99.90
22114;DHT22;11223;49.968;9.062;2022-09-17T00:28:09;7.80;99.90
22114;DHT22;11223;49.968;9.062;2022-09-17T00:30:41;7.80;99.90
22114;DHT22;11223;49.968;9.062;2022-09-17T00:33:09;7.70;99.90
22114;DHT22;11223;49.968;9.062;2022-09-17T00:35:35;7.80;99.90
22114;DHT22;11223;49.968;9.062;2022-09-17T00:38:01;7.80;99.90
22114;DHT22;11223;49.968;9.062;2022-09-17T00:40:27;7.80;99.90
22114;DHT22;11223;49.968;9.062;2022-09-17T00:42:53;7.80;99.90
22114;DHT22;11223;49.968;9.062;2022-09-17T00:45:18;7.80;99.90
22114;DHT22;11223;49.968;9.062;2022-09-17T00:47:47;7.70;99.90
22114;DHT22;11223;49.968;9.062;2022-09-17T00:50:40;7.70;99.90
22114;DHT22;11223;49.968;9.062;2022-09-17T00:53:16;7.60;99.90
22114;DHT22;11223;49.968;9.062;2022-09-17T00:55:46;7.60;99.90
22114;DHT22;11223;49.968;9.062;2022-09-17T00:58:14;7.60;99.90
22114;DHT22;11223;49.968;9.062;2022-09-17T01:00:41;7.60;99.90
22114;DHT22;11223;49.968;9.062;2022-09-17T01:03:07;7.70;99.90
22114;DHT22;11223;49.968;9.062;2022-09-17T01:16:44;7.80;99.90
22114;DHT22;11223;49.968;9.062;2022-09-17T01:22:27;7.90;99.90
22114;DHT22;11223;49.968;9.062;2022-09-17T01:30:38;8.00;99.90
22114;DHT22;11223;49.968;9.062;2022-09-17T01:40:52;8.20;99.90
22114;DHT22;11223;49.968;9.062;2022-09-17T01:43:32;8.20;99.90
22114;DHT22;11223;49.968;9.062;2022-09-17T01:46:06;8.30;99.90
22114;DHT22;11223;49.968;9.062;2022-09-17T01:48:39;8.30;99.90
22114;DHT22;11223;49.968;9.062;2022-09-17T01:51:08;8.30;99.90
22114;DHT22;11223;49.968;9.062;2022-09-17T01:54:17;8.40;99.90
22114;DHT22;11223;49.968;9.062;2022-09-17T01:56:41;8.40;99.90
22114;DHT22;11223;49.968;9.062;2022-09-17T01:59:21;8.50;99.90
22114;DHT22;11223;49.968;9.062;2022-09-17T02:01:51;8.50;99.90
22114;DHT22;11223;49.968;9.062;2022-09-17T02:04:23;8.60;99.90
22114;DHT22;11223;49.968;9.062;2022-09-17T02:06:59;8.60;99.90
22114;DHT22;11223;49.968;9.062;2022-09-17T02:09:35;8.70;99.90
22114;DHT22;11223;49.968;9.062;2022-09-17T02:12:06;8.70;99.90
22114;DHT22;11223;49.968;9.062;2022-09-17T02:14:46;8.70;99.90
22114;DHT22;11223;49.968;9.062;2022-09-17T02:17:21;8.80;99.90
22114;DHT22;11223;49.968;9.062;2022-09-17T02:19:48;8.80;99.90
22114;DHT22;11223;49.968;9.062;2022-09-17T02:27:39;8.90;99.90
22114;DHT22;11223;49.968;9.062;2022-09-17T02:30:09;8.90;99.90
22114;DHT22;11223;49.968;9.062;2022-09-17T02:32:35;8.90;99.90
22114;DHT22;11223;49.968;9.062;2022-09-17T02:35:01;8.90;99.90
22114;DHT22;11223;49.968;9.062;2022-09-17T02:37:26;9.00;99.90
22114;DHT22;11223;49.968;9.062;2022-09-17T02:39:52;9.00;99.90
22114;DHT22;11223;49.968;9.062;2022-09-17T02:42:32;9.00;99.90
22114;DHT22;11223;49.968;9.062;2022-09-17T02:47:32;9.10;99.90
22114;DHT22;11223;49.968;9.062;2022-09-17T02:58:37;9.10;99.90
22114;DHT22;11223;49.968;9.062;2022-09-17T03:01:11;9.10;99.90
22114;DHT22;11223;49.968;9.062;2022-09-17T03:03:42;9.10;99.90
22114;DHT22;11223;49.968;9.062;2022-09-17T03:06:08;9.10;99.90
22114;DHT22;11223;49.968;9.062;2022-09-17T03:08:36;9.10;99.90
22114;DHT22;11223;49.968;9.062;2022-09-17T03:11:05;9.20;99.90
22114;DHT22;11223;49.968;9.062;2022-09-17T03:13:33;9.20;99.90
22114;DHT22;11223;49.968;9.062;2022-09-17T03:16:01;9.10;99.90
22114;DHT22;11223;49.968;9.062;2022-09-17T03:18:26;9.20;99.90
22114;DHT22;11223;49.968;9.062;2022-09-17T03:20:52;9.20;99.90
22114;DHT22;11223;49.968;9.062;2022-09-17T03:23:18;9.20;99.90
22114;DHT22;11223;49.968;9.062;2022-09-17T03:25:45;9.20;99.90
22114;DHT22;11223;49.968;9.062;2022-09-17T03:28:10;9.20;99.90
22114;DHT22;11223;49.968;9.062;2022-09-17T03:30:36;9.10;99.90
22114;DHT22;11223;49.968;9.062;2022-09-17T03:33:02;9.20;99.90
22114;DHT22;11223;49.968;9.062;2022-09-17T03:35:27;9.20;99.90
22114;DHT22;11223;49.968;9.062;2022-09-17T03:37:53;9.10;99.90
22114;DHT22;11223;49.968;9.062;2022-09-17T03:40:18;9.20;99.90
22114;DHT22;11223;49.968;9.062;2022-09-17T03:42:44;9.10;99.90
22114;DHT22;11223;49.968;9.062;2022-09-17T03:45:10;9.10;99.90
22114;DHT22;11223;49.968;9.062;2022-09-17T03:47:36;9.10;99.90
22114;DHT22;11223;49.968;9.062;2022-09-17T03:50:03;9.10;99.90
22114;DHT22;11223;49.968;9.062;2022-09-17T03:52:29;9.10;99.90
22114;DHT22;11223;49.968;9.062;2022-09-17T03:54:54;9.20;99.90
22114;DHT22;11223;49.968;9.062;2022-09-17T03:57:20;9.20;99.90
22114;DHT22;11223;49.968;9.062;2022-09-17T03:59:47;9.20;99.90
22114;DHT22;11223;49.968;9.062;2022-09-17T04:02:13;9.20;99.90
22114;DHT22;11223;49.968;9.062;2022-09-17T04:04:38;9.20;99.90
22114;DHT22;11223;49.968;9.062;2022-09-17T04:07:04;9.20;99.90
22114;DHT22;11223;49.968;9.062;2022-09-17T04:09:29;9.20;99.90
22114;DHT22;11223;49.968;9.062;2022-09-17T04:11:55;9.20;99.90
22114;DHT22;11223;49.968;9.062;2022-09-17T04:14:21;9.30;99.90
22114;DHT22;11223;49.968;9.062;2022-09-17T04:16:46;9.20;99.90
22114;DHT22;11223;49.968;9.062;2022-09-17T04:19:12;9.20;99.90
22114;DHT22;11223;49.968;9.062;2022-09-17T04:21:37;9.20;99.90
22114;DHT22;11223;49.968;9.062;2022-09-17T04:24:03;9.20;99.90
22114;DHT22;11223;49.968;9.062;2022-09-17T04:26:28;9.20;99.90
22114;DHT22;11223;49.968;9.062;2022-09-17T04:28:54;9.20;99.90
22114;DHT22;11223;49.968;9.062;2022-09-17T04:31:20;9.20;99.90
22114;DHT22;11223;49.968;9.062;2022-09-17T04:33:46;9.20;99.90
22114;DHT22;11223;49.968;9.062;2022-09-17T04:36:12;9.20;99.90
22114;DHT22;11223;49.968;9.062;2022-09-17T04:38:37;9.20;99.90
22114;DHT22;11223;49.968;9.062;2022-09-17T04:41:05;9.20;99.90
22114;DHT22;11223;49.968;9.062;2022-09-17T04:43:31;9.20;99.90
22114;DHT22;11223;49.968;9.062;2022-09-17T04:45:57;9.20;99.90
22114;DHT22;11223;49.968;9.062;2022-09-17T04:48:22;9.20;99.90
22114;DHT22;11223;49.968;9.062;2022-09-17T04:50:48;9.20;99.90
22114;DHT22;11223;49.968;9.062;2022-09-17T04:53:13;9.20;99.90
22114;DHT22;11223;49.968;9.062;2022-09-17T04:55:39;9.20;99.90
22114;DHT22;11223;49.968;9.062;2022-09-17T04:58:04;9.20;99.90
22114;DHT22;11223;49.968;9.062;2022-09-17T05:00:30;9.30;99.90
22114;DHT22;11223;49.968;9.062;2022-09-17T05:02:56;9.30;99.90
22114;DHT22;11223;49.968;9.062;2022-09-17T05:05:22;9.30;99.90
22114;DHT22;11223;49.968;9.062;2022-09-17T05:07:48;9.30;99.90
22114;DHT22;11223;49.968;9.062;2022-09-17T05:10:15;9.30;99.90
22114;DHT22;11223;49.968;9.062;2022-09-17T05:12:47;9.30;99.90
22114;DHT22;11223;49.968;9.062;2022-09-17T05:15:13;9.30;99.90
22114;DHT22;11223;49.968;9.062;2022-09-17T05:17:38;9.30;99.90
22114;DHT22;11223;49.968;9.062;2022-09-17T05:20:04;9.30;99.90
22114;DHT22;11223;49.968;9.062;2022-09-17T05:22:30;9.30;99.90
22114;DHT22;11223;49.968;9.062;2022-09-17T05:24:55;9.30;99.90
22114;DHT22;11223;49.968;9.062;2022-09-17T05:27:21;9.30;99.90
22114;DHT22;11223;49.968;9.062;2022-09-17T05:29:47;9.30;99.90
22114;DHT22;11223;49.968;9.062;2022-09-17T05:32:12;9.30;99.90
22114;DHT22;11223;49.968;9.062;2022-09-17T05:34:38;9.30;99.90
22114;DHT22;11223;49.968;9.062;2022-09-17T05:37:03;9.30;99.90
22114;DHT22;11223;49.968;9.062;2022-09-17T05:39:29;9.30;99.90
22114;DHT22;11223;49.968;9.062;2022-09-17T05:41:54;9.30;99.90
22114;DHT22;11223;49.968;9.062;2022-09-17T05:44:20;9.30;99.90
22114;DHT22;11223;49.968;9.062;2022-09-17T05:46:46;9.30;99.90
22114;DHT22;11223;49.968;9.062;2022-09-17T05:49:12;9.30;99.90
22114;DHT22;11223;49.968;9.062;2022-09-17T05:51:42;9.30;99.90
22114;DHT22;11223;49.968;9.062;2022-09-17T05:54:08;9.30;99.90
22114;DHT22;11223;49.968;9.062;2022-09-17T05:56:34;9.30;99.90
22114;DHT22;11223;49.968;9.062;2022-09-17T05:58:59;9.30;99.90
22114;DHT22;11223;49.968;9.062;2022-09-17T06:01:25;9.30;99.90
22114;DHT22;11223;49.968;9.062;2022-09-17T06:03:51;9.30;99.90
22114;DHT22;11223;49.968;9.062;2022-09-17T06:06:16;9.20;99.90
22114;DHT22;11223;49.968;9.062;2022-09-17T06:08:42;9.20;99.90
22114;DHT22;11223;49.968;9.062;2022-09-17T06:11:08;9.30;99.90
22114;DHT22;11223;49.968;9.062;2022-09-17T06:13:34;9.30;99.90
22114;DHT22;11223;49.968;9.062;2022-09-17T06:16:00;9.30;99.90
22114;DHT22;11223;49.968;9.062;2022-09-17T06:18:27;9.30;99.90
22114;DHT22;11223;49.968;9.062;2022-09-17T06:20:55;9.30;99.90
22114;DHT22;11223;49.968;9.062;2022-09-17T06:23:21;9.30;99.90
22114;DHT22;11223;49.968;9.062;2022-09-17T06:26:05;9.30;99.90
22114;DHT22;11223;49.968;9.062;2022-09-17T06:28:31;9.40;99.90
22114;DHT22;11223;49.968;9.062;2022-09-17T06:31:01;9.40;99.90
22114;DHT22;11223;49.968;9.062;2022-09-17T06:33:28;9.40;99.90
22114;DHT22;11223;49.968;9.062;2022-09-17T06:38:25;9.30;99.90
22114;DHT22;11223;49.968;9.062;2022-09-17T06:40:51;9.40;99.90
22114;DHT22;11223;49.968;9.062;2022-09-17T06:43:17;9.50;99.90
22114;DHT22;11223;49.968;9.062;2022-09-17T06:45:43;9.50;99.90
22114;DHT22;11223;49.968;9.062;2022-09-17T06:48:09;9.60;99.90
22114;DHT22;11223;49.968;9.062;2022-09-17T06:50:34;9.70;99.90
22114;DHT22;11223;49.968;9.062;2022-09-17T06:53:00;9.80;99.90
22114;DHT22;11223;49.968;9.062;2022-09-17T06:55:26;10.00;99.90
22114;DHT22;11223;49.968;9.062;2022-09-17T06:57:52;10.20;99.90
22114;DHT22;11223;49.968;9.062;2022-09-17T07:00:18;10.40;99.90
22114;DHT22;11223;49.968;9.062;2022-09-17T07:02:54;10.50;99.90
22114;DHT22;11223;49.968;9.062;2022-09-17T07:05:20;10.60;99.90
22114;DHT22;11223;49.968;9.062;2022-09-17T07:07:45;10.60;99.90
22114;DHT22;11223;49.968;9.062;2022-09-17T07:10:11;10.70;99.90
22114;DHT22;11223;49.968;9.062;2022-09-17T07:12:39;10.80;99.90
22114;DHT22;11223;49.968;9.062;2022-09-17T07:15:05;10.90;99.90
22114;DHT22;11223;49.968;9.062;2022-09-17T07:17:31;11.00;99.90
22114;DHT22;11223;49.968;9.062;2022-09-17T07:19:57;11.10;99.90
22114;DHT22;11223;49.968;9.062;2022-09-17T07:22:23;11.10;99.90
22114;DHT22;11223;49.968;9.062;2022-09-17T07:24:49;11.20;99.90
22114;DHT22;11223;49.968;9.062;2022-09-17T07:27:14;11.20;99.90
22114;DHT22;11223;49.968;9.062;2022-09-17T07:29:40;11.30;99.90
22114;DHT22;11223;49.968;9.062;2022-09-17T07:32:06;11.40;99.90
22114;DHT22;11223;49.968;9.062;2022-09-17T07:34:32;11.40;99.90
22114;DHT22;11223;49.968;9.062;2022-09-17T07:36:57;11.40;99.90
22114;DHT22;11223;49.968;9.062;2022-09-17T07:39:23;11.50;99.90
22114;DHT22;11223;49.968;9.062;2022-09-17T07:41:48;11.70;99.90
22114;DHT22;11223;49.968;9.062;2022-09-17T07:44:14;11.90;99.90
22114;DHT22;11223;49.968;9.062;2022-09-17T07:46:39;12.10;99.90
22114;DHT22;11223;49.968;9.062;2022-09-17T07:49:05;12.20;99.90
22114;DHT22;11223;49.968;9.062;2022-09-17T07:51:30;12.40;99.90
22114;DHT22;11223;49.968;9.062;2022-09-17T07:53:57;12.50;99.90
22114;DHT22;11223;49.968;9.062;2022-09-17T07:56:25;12.50;99.90
22114;DHT22;11223;49.968;9.062;2022-09-17T07:58:50;12.60;99.90
22114;DHT22;11223;49.968;9.062;2022-09-17T08:01:17;12.70;99.90
22114;DHT22;11223;49.968;9.062;2022-09-17T08:03:47;12.80;99.90
22114;DHT22;11223;49.968;9.062;2022-09-17T08:06:15;13.00;99.90
22114;DHT22;11223;49.968;9.062;2022-09-17T08:08:42;13.10;99.90
22114;DHT22;11223;49.968;9.062;2022-09-17T08:11:13;13.30;99.90
22114;DHT22;11223;49.968;9.062;2022-09-17T08:13:39;13.30;99.90
22114;DHT22;11223;49.968;9.062;2022-09-17T08:16:10;13.30;99.90
22114;DHT22;11223;49.968;9.062;2022-09-17T08:18:38;13.40;99.90
22114;DHT22;11223;49.968;9.062;2022-09-17T08:21:06;13.40;99.90
22114;DHT22;11223;49.968;9.062;2022-09-17T08:23:35;13.50;99.90
22114;DHT22;11223;49.968;9.062;2022-09-17T08:26:01;13.70;99.90
22114;DHT22;11223;49.968;9.062;2022-09-17T08:28:29;13.90;99.90
22114;DHT22;11223;49.968;9.062;2022-09-17T08:31:00;13.80;99.90
22114;DHT22;11223;49.968;9.062;2022-09-17T08:33:28;13.70;99.90
22114;DHT22;11223;49.968;9.062;2022-09-17T08:35:55;13.50;99.90
22114;DHT22;11223;49.968;9.062;2022-09-17T08:38:29;13.50;99.90
22114;DHT22;11223;49.968;9.062;2022-09-17T08:46:27;13.60;99.90
22114;DHT22;11223;49.968;9.062;2022-09-17T08:52:42;13.60;99.90
22114;DHT22;11223;49.968;9.062;2022-09-17T08:55:39;13.60;99.90
22114;DHT22;11223;49.968;9.062;2022-09-17T09:01:56;13.80;99.90
22114;DHT22;11223;49.968;9.062;2022-09-17T09:07:08;13.70;99.90
22114;DHT22;11223;49.968;9.062;2022-09-17T09:09:39;13.60;99.90
22114;DHT22;11223;49.968;9.062;2022-09-17T09:12:19;13.50;99.90
22114;DHT22;11223;49.968;9.062;2022-09-17T09:14:55;13.30;99.90
22114;DHT22;11223;49.968;9.062;2022-09-17T09:17:26;13.20;99.90
22114;DHT22;11223;49.968;9.062;2022-09-17T09:19:52;13.00;99.90
22114;DHT22;11223;49.968;9.062;2022-09-17T09:23:07;12.90;99.90
22114;DHT22;11223;49.968;9.062;2022-09-17T09:25:32;13.00;99.90
22114;DHT22;11223;49.968;9.062;2022-09-17T09:33:18;14.10;99.90
22114;DHT22;11223;49.968;9.062;2022-09-17T09:35:45;14.40;99.90
22114;DHT22;11223;49.968;9.062;2022-09-17T09:38:33;14.40;99.90
22114;DHT22;11223;49.968;9.062;2022-09-17T09:44:14;14.40;99.90
22114;DHT22;11223;49.968;9.062;2022-09-17T09:55:02;14.30;99.90
22114;DHT22;11223;49.968;9.062;2022-09-17T09:58:02;14.10;99.90
22114;DHT22;11223;49.968;9.062;2022-09-17T10:00:30;13.80;99.90
22114;DHT22;11223;49.968;9.062;2022-09-17T10:03:26;13.70;99.90
22114;DHT22;11223;49.968;9.062;2022-09-17T10:05:57;13.60;99.90
22114;DHT22;11223;49.968;9.062;2022-09-17T10:08:24;13.50;99.90
22114;DHT22;11223;49.968;9.062;2022-09-17T10:10:54;13.50;99.90
22114;DHT22;11223;49.968;9.062;2022-09-17T10:13:20;13.60;99.90
22114;DHT22;11223;49.968;9.062;2022-09-17T10:15:46;13.70;99.90
22114;DHT22;11223;49.968;9.062;2022-09-17T10:18:16;13.80;99.90
22114;DHT22;11223;49.968;9.062;2022-09-17T10:23:22;13.80;99.90
22114;DHT22;11223;49.968;9.062;2022-09-17T10:25:49;13.70;99.90
22114;DHT22;11223;49.968;9.062;2022-09-17T10:28:48;13.80;99.90
22114;DHT22;11223;49.968;9.062;2022-09-17T10:31:14;14.00;99.90
22114;DHT22;11223;49.968;9.062;2022-09-17T10:33:51;14.20;99.90
22114;DHT22;11223;49.968;9.062;2022-09-17T10:36:47;14.30;99.90
22114;DHT22;11223;49.968;9.062;2022-09-17T10:39:34;14.40;99.90
22114;DHT22;11223;49.968;9.062;2022-09-17T10:42:13;14.70;99.90
22114;DHT22;11223;49.968;9.062;2022-09-17T10:44:53;14.90;99.90
22114;DHT22;11223;49.968;9.062;2022-09-17T10:47:33;15.10;99.90
22114;DHT22;11223;49.968;9.062;2022-09-17T10:50:16;15.20;99.90
22114;DHT22;11223;49.968;9.062;2022-09-17T10:53:03;15.20;99.90
22114;DHT22;11223;49.968;9.062;2022-09-17T10:55:45;15.10;99.90
22114;DHT22;11223;49.968;9.062;2022-09-17T10:58:34;15.00;99.90
22114;DHT22;11223;49.968;9.062;2022-09-17T11:10:11;14.90;99.90
22114;DHT22;11223;49.968;9.062;2022-09-17T11:15:44;14.70;99.90
22114;DHT22;11223;49.968;9.062;2022-09-17T11:18:34;14.60;99.90
22114;DHT22;11223;49.968;9.062;2022-09-17T11:21:12;14.60;99.90
22114;DHT22;11223;49.968;9.062;2022-09-17T11:27:10;14.90;99.90
22114;DHT22;11223;49.968;9.062;2022-09-17T11:35:30;15.20;99.90
22114;DHT22;11223;49.968;9.062;2022-09-17T11:38:00;15.20;99.90
22114;DHT22;11223;49.968;9.062;2022-09-17T11:40:36;15.30;99.90
22114;DHT22;11223;49.968;9.062;2022-09-17T11:43:25;15.30;99.90
22114;DHT22;11223;49.968;9.062;2022-09-17T11:48:41;15.40;99.90
22114;DHT22;11223;49.968;9.062;2022-09-17T11:51:29;15.60;99.90
22114;DHT22;11223;49.968;9.062;2022-09-17T11:54:31;15.80;99.90
22114;DHT22;11223;49.968;9.062;2022-09-17T11:57:08;16.20;99.90
22114;DHT22;11223;49.968;9.062;2022-09-17T12:00:11;16.40;99.90
22114;DHT22;11223;49.968;9.062;2022-09-17T12:05:18;16.20;99.90
22114;DHT22;11223;49.968;9.062;2022-09-17T12:08:03;16.10;99.90
22114;DHT22;11223;49.968;9.062;2022-09-17T12:15:48;15.70;99.90
22114;DHT22;11223;49.968;9.062;2022-09-17T12:18:47;15.60;99.90
22114;DHT22;11223;49.968;9.062;2022-09-17T12:21:20;15.70;99.90
22114;DHT22;11223;49.968;9.062;2022-09-17T12:24:15;16.00;99.90
22114;DHT22;11223;49.968;9.062;2022-09-17T12:51:50;16.20;99.90
22114;DHT22;11223;49.968;9.062;2022-09-17T12:59:24;16.50;99.90
22114;DHT22;11223;49.968;9.062;2022-09-17T13:02:01;16.70;99.90
22114;DHT22;11223;49.968;9.062;2022-09-17T13:10:11;16.90;99.90
22114;DHT22;11223;49.968;9.062;2022-09-17T13:21:05;18.20;99.90
22114;DHT22;11223;49.968;9.062;2022-09-17T13:23:41;18.40;99.90
22114;DHT22;11223;49.968;9.062;2022-09-17T13:26:10;18.30;99.90
22114;DHT22;11223;49.968;9.062;2022-09-17T13:28:45;18.00;99.90
22114;DHT22;11223;49.968;9.062;2022-09-17T13:31:12;17.70;99.90
22114;DHT22;11223;49.968;9.062;2022-09-17T13:33:57;17.50;99.90
22114;DHT22;11223;49.968;9.062;2022-09-17T13:36:54;17.30;99.90
22114;DHT22;11223;49.968;9.062;2022-09-17T13:39:39;17.20;99.90
22114;DHT22;11223;49.968;9.062;2022-09-17T13:42:12;17.00;99.90
22114;DHT22;11223;49.968;9.062;2022-09-17T13:44:42;16.90;99.90
22114;DHT22;11223;49.968;9.062;2022-09-17T13:47:22;16.70;99.90
22114;DHT22;11223;49.968;9.062;2022-09-17T13:50:04;16.50;99.90
22114;DHT22;11223;49.968;9.062;2022-09-17T13:54:58;16.20;99.90
22114;DHT22;11223;49.968;9.062;2022-09-17T13:57:25;16.10;99.90
22114;DHT22;11223;49.968;9.062;2022-09-17T13:59:53;16.00;99.90
22114;DHT22;11223;49.968;9.062;2022-09-17T14:04:50;15.90;99.90
22114;DHT22;11223;49.968;9.062;2022-09-17T14:10:28;16.00;99.90
22114;DHT22;11223;49.968;9.062;2022-09-17T14:13:20;15.90;99.90
22114;DHT22;11223;49.968;9.062;2022-09-17T14:23:41;15.70;99.90
22114;DHT22;11223;49.968;9.062;2022-09-17T14:26:18;15.60;99.90
22114;DHT22;11223;49.968;9.062;2022-09-17T14:28:56;15.60;99.90
22114;DHT22;11223;49.968;9.062;2022-09-17T14:31:30;15.50;99.90
22114;DHT22;11223;49.968;9.062;2022-09-17T14:33:57;15.50;99.90
22114;DHT22;11223;49.968;9.062;2022-09-17T14:36:23;15.50;99.90
22114;DHT22;11223;49.968;9.062;2022-09-17T14:38:58;15.40;99.90
22114;DHT22;11223;49.968;9.062;2022-09-17T14:41:30;15.30;99.90
22114;DHT22;11223;49.968;9.062;2022-09-17T14:44:13;15.30;99.90
22114;DHT22;11223;49.968;9.062;2022-09-17T14:46:55;15.20;99.90
22114;DHT22;11223;49.968;9.062;2022-09-17T14:49:28;15.00;99.90
22114;DHT22;11223;49.968;9.062;2022-09-17T14:51:56;14.90;99.90
22114;DHT22;11223;49.968;9.062;2022-09-17T14:56:59;14.60;99.90
22114;DHT22;11223;49.968;9.062;2022-09-17T14:59:37;14.50;99.90
22114;DHT22;11223;49.968;9.062;2022-09-17T15:02:27;14.40;99.90
22114;DHT22;11223;49.968;9.062;2022-09-17T15:04:54;14.30;99.90
22114;DHT22;11223;49.968;9.062;2022-09-17T15:07:21;14.20;99.90
22114;DHT22;11223;49.968;9.062;2022-09-17T15:09:46;14.10;99.90
22114;DHT22;11223;49.968;9.062;2022-09-17T15:12:16;14.00;99.90
22114;DHT22;11223;49.968;9.062;2022-09-17T15:14:44;13.90;99.90
22114;DHT22;11223;49.968;9.062;2022-09-17T15:17:14;13.80;99.90
22114;DHT22;11223;49.968;9.062;2022-09-17T15:19:45;13.70;99.90
22114;DHT22;11223;49.968;9.062;2022-09-17T15:22:25;13.50;99.90
22114;DHT22;11223;49.968;9.062;2022-09-17T15:27:38;13.30;99.90
22114;DHT22;11223;49.968;9.062;2022-09-17T15:30:16;13.20;99.90
22114;DHT22;11223;49.968;9.062;2022-09-17T15:37:44;12.90;99.90
22114;DHT22;11223;49.968;9.062;2022-09-17T15:45:45;13.10;99.90
22114;DHT22;11223;49.968;9.062;2022-09-17T15:48:37;13.10;99.90
22114;DHT22;11223;49.968;9.062;2022-09-17T15:51:11;13.10;99.90
22114;DHT22;11223;49.968;9.062;2022-09-17T15:53:50;13.10;99.90
22114;DHT22;11223;49.968;9.062;2022-09-17T15:56:17;13.10;99.90
22114;DHT22;11223;49.968;9.062;2022-09-17T16:08:45;13.20;99.90
22114;DHT22;11223;49.968;9.062;2022-09-17T16:11:15;13.20;99.90
22114;DHT22;11223;49.968;9.062;2022-09-17T16:13:41;13.20;99.90
22114;DHT22;11223;49.968;9.062;2022-09-17T16:16:14;13.20;99.90
22114;DHT22;11223;49.968;9.062;2022-09-17T16:18:40;13.20;99.90
22114;DHT22;11223;49.968;9.062;2022-09-17T16:21:11;13.20;99.90
22114;DHT22;11223;49.968;9.062;2022-09-17T16:23:36;13.20;99.90
22114;DHT22;11223;49.968;9.062;2022-09-17T16:26:06;13.20;99.90
22114;DHT22;11223;49.968;9.062;2022-09-17T16:28:34;13.20;99.90
22114;DHT22;11223;49.968;9.062;2022-09-17T16:31:00;13.20;99.90
22114;DHT22;11223;49.968;9.062;2022-09-17T16:33:25;13.10;99.90
22114;DHT22;11223;49.968;9.062;2022-09-17T16:35:55;13.10;99.90
22114;DHT22;11223;49.968;9.062;2022-09-17T16:38:21;13.10;99.90
22114;DHT22;11223;49.968;9.062;2022-09-17T16:40:47;13.00;99.90
22114;DHT22;11223;49.968;9.062;2022-09-17T16:43:13;13.00;99.90
22114;DHT22;11223;49.968;9.062;2022-09-17T16:45:39;12.90;99.90
22114;DHT22;11223;49.968;9.062;2022-09-17T16:48:05;12.90;99.90
22114;DHT22;11223;49.968;9.062;2022-09-17T16:50:31;12.80;99.90
22114;DHT22;11223;49.968;9.062;2022-09-17T16:52:57;12.70;99.90
22114;DHT22;11223;49.968;9.062;2022-09-17T16:55:23;12.60;99.90
22114;DHT22;11223;49.968;9.062;2022-09-17T16:57:48;12.60;99.90
22114;DHT22;11223;49.968;9.062;2022-09-17T17:00:16;12.50;99.90
22114;DHT22;11223;49.968;9.062;2022-09-17T17:02:50;12.50;99.90
22114;DHT22;11223;49.968;9.062;2022-09-17T17:05:15;12.50;99.90
22114;DHT22;11223;49.968;9.062;2022-09-17T17:07:41;12.40;99.90
22114;DHT22;11223;49.968;9.062;2022-09-17T17:10:07;12.30;99.90
22114;DHT22;11223;49.968;9.062;2022-09-17T17:12:36;12.20;99.90
22114;DHT22;11223;49.968;9.062;2022-09-17T17:15:02;12.10;99.90
22114;DHT22;11223;49.968;9.062;2022-09-17T17:17:30;12.00;99.90
22114;DHT22;11223;49.968;9.062;2022-09-17T17:19:56;11.90;99.90
22114;DHT22;11223;49.968;9.062;2022-09-17T17:22:22;11.80;99.90
22114;DHT22;11223;49.968;9.062;2022-09-17T17:24:48;11.70;99.90
22114;DHT22;11223;49.968;9.062;2022-09-17T17:27:13;11.60;99.90
22114;DHT22;11223;49.968;9.062;2022-09-17T17:29:39;11.60;99.90
22114;DHT22;11223;49.968;9.062;2022-09-17T17:32:05;11.50;99.90
22114;DHT22;11223;49.968;9.062;2022-09-17T17:34:31;11.50;99.90
22114;DHT22;11223;49.968;9.062;2022-09-17T17:36:57;11.60;99.90
22114;DHT22;11223;49.968;9.062;2022-09-17T17:39:23;11.50;99.90
22114;DHT22;11223;49.968;9.062;2022-09-17T17:41:48;11.50;99.90
22114;DHT22;11223;49.968;9.062;2022-09-17T17:44:14;11.60;99.90
22114;DHT22;11223;49.968;9.062;2022-09-17T17:46:40;11.60;99.90
22114;DHT22;11223;49.968;9.062;2022-09-17T17:49:06;11.50;99.90
22114;DHT22;11223;49.968;9.062;2022-09-17T17:51:33;11.50;99.90
22114;DHT22;11223;49.968;9.062;2022-09-17T17:53:59;11.50;99.90
22114;DHT22;11223;49.968;9.062;2022-09-17T17:56:24;11.50;99.90
22114;DHT22;11223;49.968;9.062;2022-09-17T17:58:57;11.40;99.90
22114;DHT22;11223;49.968;9.062;2022-09-17T18:01:27;11.40;99.90
22114;DHT22;11223;49.968;9.062;2022-09-17T18:03:57;11.40;99.90
22114;DHT22;11223;49.968;9.062;2022-09-17T18:06:23;11.40;99.90
22114;DHT22;11223;49.968;9.062;2022-09-17T18:08:49;11.40;99.90
22114;DHT22;11223;49.968;9.062;2022-09-17T18:11:15;11.40;99.90
22114;DHT22;11223;49.968;9.062;2022-09-17T18:13:40;11.30;99.90
22114;DHT22;11223;49.968;9.062;2022-09-17T18:16:07;11.20;99.90
22114;DHT22;11223;49.968;9.062;2022-09-17T18:18:37;11.20;99.90
22114;DHT22;11223;49.968;9.062;2022-09-17T18:21:16;11.10;99.90
22114;DHT22;11223;49.968;9.062;2022-09-17T18:23:42;11.00;99.90
22114;DHT22;11223;49.968;9.062;2022-09-17T18:26:11;10.90;99.90
22114;DHT22;11223;49.968;9.062;2022-09-17T18:28:37;10.80;99.90
22114;DHT22;11223;49.968;9.062;2022-09-17T18:31:05;10.80;99.90
22114;DHT22;11223;49.968;9.062;2022-09-17T18:33:31;10.70;99.90
22114;DHT22;11223;49.968;9.062;2022-09-17T18:36:00;10.60;99.90
22114;DHT22;11223;49.968;9.062;2022-09-17T18:38:26;10.50;99.90
22114;DHT22;11223;49.968;9.062;2022-09-17T18:40:51;10.40;99.90
22114;DHT22;11223;49.968;9.062;2022-09-17T18:43:17;10.40;99.90
22114;DHT22;11223;49.968;9.062;2022-09-17T18:45:52;10.30;99.90
22114;DHT22;11223;49.968;9.062;2022-09-17T18:48:17;10.30;99.90
22114;DHT22;11223;49.968;9.062;2022-09-17T18:53:26;10.10;99.90
22114;DHT22;11223;49.968;9.062;2022-09-17T18:55:53;10.10;99.90
22114;DHT22;11223;49.968;9.062;2022-09-17T18:58:20;10.00;99.90
22114;DHT22;11223;49.968;9.062;2022-09-17T19:00:46;9.90;99.90
22114;DHT22;11223;49.968;9.062;2022-09-17T19:03:12;9.80;99.90
22114;DHT22;11223;49.968;9.062;2022-09-17T19:05:38;9.80;99.90
22114;DHT22;11223;49.968;9.062;2022-09-17T19:08:03;9.80;99.90
22114;DHT22;11223;49.968;9.062;2022-09-17T19:10:32;9.80;99.90
22114;DHT22;11223;49.968;9.062;2022-09-17T19:12:57;9.70;99.90
22114;DHT22;11223;49.968;9.062;2022-09-17T19:15:23;9.70;99.90
22114;DHT22;11223;49.968;9.062;2022-09-17T19:17:49;9.70;99.90